Time;durP1;ratioP1;P1;durP2;ratioP2;P2;SDS_P1;SDS_P2;PMS_P1;PMS_P2;Temp;Humidity;BMP_temperature;BMP_pressure;BME280_temperature;BME280_humidity;BME280_pressure;Samples;Min_cycle;Max_cycle;Signal;HPM_P1;HPM_P2
2023/09/27 00:01:02;;;;;;;28.33;25.17;;;14.80;99.90;;;-141.84;97.34;20006.91;4983269;28;20231;-60
2023/09/27 00:03:30;;;;;;;29.45;25.70;;;14.80;99.90;;;-141.84;97.51;19990.66;4975187;28;20622;-60
2023/09/27 00:05:58;;;;;;;28.60;25.60;;;14.80;99.90;;;-141.84;97.60;20000.81;4983355;28;20208;-60
2023/09/27 00:08:27;;;;;;;31.20;26.40;;;14.70;99.90;;;-141.84;97.72;19960.16;4983229;28;20626;-62
2023/09/27 00:10:57;;;;;;;30.92;27.38;;;14.70;99.90;;;-141.84;97.80;19945.94;4983310;28;20227;-61
2023/09/27 00:13:25;;;;;;;37.42;30.25;;;14.70;99.90;;;-141.84;97.87;19937.81;4974747;28;20587;-60
2023/09/27 00:15:53;;;;;;;35.03;30.85;;;14.70;99.90;;;-141.84;98.02;19939.84;4982896;28;20263;-60
2023/09/27 00:18:21;;;;;;;39.05;32.42;;;14.60;99.90;;;-141.84;98.03;19952.03;4983007;28;20303;-60
2023/09/27 00:20:49;;;;;;;39.28;32.63;;;14.70;99.90;;;-141.84;98.01;19935.78;5002129;28;20207;-61
2023/09/27 00:23:18;;;;;;;43.15;33.60;;;14.60;99.90;;;-141.84;98.05;19945.94;5002356;28;20609;-60
2023/09/27 00:25:46;;;;;;;36.45;32.03;;;14.60;99.90;;;-141.84;97.98;19923.59;5001529;28;20792;-61
2023/09/27 00:28:15;;;;;;;37.83;30.23;;;14.60;99.90;;;-141.84;98.07;19903.25;5002547;28;20606;-61
2023/09/27 00:30:43;;;;;;;36.40;31.45;;;14.50;99.90;;;-141.84;98.07;19933.75;5002559;28;20761;-60
2023/09/27 00:33:12;;;;;;;34.33;30.38;;;14.50;99.90;;;-141.84;98.12;19917.50;5001983;28;20234;-61
2023/09/27 00:35:40;;;;;;;37.05;29.42;;;14.50;99.90;;;-141.84;98.14;19931.72;4995593;28;20580;-61
2023/09/27 00:38:10;;;;;;;36.00;30.85;;;14.50;99.90;;;-141.84;98.10;19899.19;5002492;28;20769;-60
2023/09/27 00:40:46;;;;;;;36.60;30.35;;;14.60;99.90;;;-141.84;98.14;19897.16;5002710;28;20238;-60
2023/09/27 00:43:32;;;;;;;33.83;30.23;;;14.50;99.90;;;-141.84;98.20;19935.78;4972473;28;20772;-61
2023/09/27 00:46:03;;;;;;;33.90;30.13;;;14.50;99.90;;;-141.84;98.03;19927.66;4977691;28;20786;-60
2023/09/27 00:48:33;;;;;;;35.08;29.65;;;14.50;99.90;;;-141.84;97.91;19897.16;4986090;28;20227;-60
2023/09/27 00:51:03;;;;;;;33.17;29.15;;;14.50;99.90;;;-141.84;97.86;19919.53;4968823;28;20631;-61
2023/09/27 00:53:35;;;;;;;31.60;28.15;;;14.50;99.90;;;-141.84;97.96;19909.34;4977159;28;20228;-61
2023/09/27 00:56:03;;;;;;;32.70;29.05;;;14.50;99.90;;;-141.84;98.03;19864.66;4986616;28;20314;-60
2023/09/27 00:58:35;;;;;;;35.10;28.13;;;14.40;99.90;;;-141.84;98.34;19899.19;4986206;28;20239;-61
2023/09/27 01:01:04;;;;;;;32.60;29.02;;;14.40;99.90;;;-141.84;98.22;19903.25;4986243;28;20269;-61
2023/09/27 01:03:33;;;;;;;31.90;28.27;;;14.40;99.90;;;-141.84;98.19;19931.72;4977858;28;20227;-61
2023/09/27 01:06:01;;;;;;;31.08;27.52;;;14.40;99.90;;;-141.84;98.14;19905.28;4986918;28;20247;-60
2023/09/27 01:08:30;;;;;;;34.28;28.48;;;14.40;99.90;;;-141.84;98.21;19889.03;4986379;28;20227;-61
2023/09/27 01:10:58;;;;;;;33.35;28.63;;;14.40;99.90;;;-141.84;98.12;19919.53;4985965;28;20231;-61
2023/09/27 01:13:27;;;;;;;31.30;27.10;;;14.40;99.90;;;-141.84;97.98;19887.00;4978806;28;20235;-61
2023/09/27 01:15:56;;;;;;;31.77;27.52;;;14.40;99.90;;;-141.84;97.93;19901.22;4986424;28;20637;-59
2023/09/27 01:18:27;;;;;;;33.65;27.77;;;14.40;99.90;;;-141.84;97.83;19915.47;4985902;28;20253;-60
2023/09/27 01:20:55;;;;;;;30.13;26.63;;;14.40;99.90;;;-141.84;97.89;19915.47;5005377;28;20603;-60
2023/09/27 01:23:24;;;;;;;34.10;26.88;;;14.40;99.90;;;-141.84;97.74;19903.25;4997848;28;20346;-59
2023/09/27 01:26:01;;;;;;;29.33;25.45;;;14.50;99.90;;;-141.84;97.77;19895.13;5005532;28;20227;-61
2023/09/27 01:28:34;;;;;;;27.42;24.48;;;14.30;99.90;;;-141.84;97.92;19876.84;5005454;28;20229;-60
2023/09/27 01:31:02;;;;;;;31.65;25.65;;;14.30;99.90;;;-141.84;97.98;19866.69;5005459;28;20254;-61
2023/09/27 01:33:30;;;;;;;30.60;25.02;;;14.30;99.90;;;-141.84;98.03;19913.44;4996864;28;20273;-60
2023/09/27 01:35:59;;;;;;;32.65;26.30;;;14.20;99.90;;;-141.84;98.20;19899.19;5005761;28;20253;-60
2023/09/27 01:38:29;;;;;;;33.00;26.80;;;14.20;99.90;;;-141.84;98.25;19874.81;5005199;28;20246;-60
2023/09/27 01:40:58;;;;;;;32.97;28.33;;;14.20;99.90;;;-141.84;98.28;19891.06;4996917;28;20348;-61
2023/09/27 01:43:26;;;;;;;33.38;27.10;;;14.20;99.90;;;-141.84;98.18;19856.53;4977971;28;20632;-60
2023/09/27 01:45:54;;;;;;;31.90;25.73;;;14.10;99.90;;;-141.84;98.16;19887.00;4977651;28;20331;-59
2023/09/27 01:48:23;;;;;;;32.97;28.88;;;14.10;99.90;;;-141.84;98.13;19850.41;4983852;28;20207;-61
2023/09/27 01:50:51;;;;;;;32.03;28.38;;;14.10;99.90;;;-141.84;98.27;19884.97;5004596;28;20246;-60
2023/09/27 01:53:19;;;;;;;32.30;28.90;;;14.00;99.90;;;-141.84;98.37;19805.72;5004470;28;20262;-60
2023/09/27 01:55:49;;;;;;;34.22;30.50;;;14.00;99.90;;;-141.84;98.34;19805.72;5003879;28;20258;-61
2023/09/27 01:58:17;;;;;;;32.00;28.52;;;14.00;99.90;;;-141.84;98.43;19803.69;4985487;28;20241;-59
2023/09/27 02:00:45;;;;;;;32.88;29.38;;;14.00;99.90;;;-141.84;98.50;19813.84;4965455;28;20714;-61
2023/09/27 02:03:13;;;;;;;31.35;26.85;;;14.00;99.90;;;-141.84;98.62;19813.84;4965586;28;20235;-61
2023/09/27 02:05:41;;;;;;;31.35;26.08;;;13.90;99.90;;;-141.84;98.66;19803.69;4958272;28;21956;-60
2023/09/27 02:08:11;;;;;;;28.25;24.92;;;14.00;99.90;;;-141.84;98.65;19828.06;4966066;28;20231;-60
2023/09/27 02:10:40;;;;;;;27.45;23.92;;;14.00;99.90;;;-141.84;98.62;19805.72;4965928;28;20238;-60
2023/09/27 02:13:09;;;;;;;27.55;23.42;;;14.00;99.90;;;-141.84;98.66;19842.28;4983959;28;20719;-60
2023/09/27 02:15:37;;;;;;;24.55;21.95;;;14.00;99.90;;;-141.84;98.60;19836.19;4977149;28;20241;-60
2023/09/27 02:18:06;;;;;;;26.25;22.58;;;14.00;99.90;;;-141.84;98.76;19779.28;4984168;28;20311;-60
2023/09/27 02:20:34;;;;;;;25.58;22.38;;;14.00;99.90;;;-141.84;98.74;19824.00;5001476;28;20210;-61
2023/09/27 02:23:03;;;;;;;27.50;22.25;;;14.00;99.90;;;-141.84;98.93;19779.28;5004528;28;20321;-61
2023/09/27 02:25:31;;;;;;;28.77;22.80;;;14.00;99.90;;;-141.84;98.87;19809.78;4996717;28;20241;-60
2023/09/27 02:27:59;;;;;;;27.08;22.52;;;13.90;99.90;;;-141.84;98.89;19789.44;5004374;28;20261;-60
2023/09/27 02:30:29;;;;;;;25.50;22.27;;;14.00;99.90;;;-141.84;98.66;19826.03;5003966;28;20233;-61
2023/09/27 02:32:57;;;;;;;30.20;23.02;;;14.00;99.90;;;-141.84;98.66;19828.06;5004530;28;20238;-61
2023/09/27 02:35:25;;;;;;;24.95;21.58;;;14.00;99.90;;;-141.84;98.46;19824.00;4996293;28;20361;-61
2023/09/27 02:37:53;;;;;;;24.40;21.20;;;14.00;99.90;;;-141.84;98.63;19828.06;4990857;28;20242;-61
2023/09/27 02:40:22;;;;;;;25.05;22.13;;;14.00;99.90;;;-141.84;98.69;19805.72;4984946;28;20227;-60
2023/09/27 02:42:50;;;;;;;24.08;21.58;;;14.00;99.90;;;-141.84;98.55;19834.16;4984805;28;20314;-60
2023/09/27 02:45:18;;;;;;;23.40;20.60;;;14.00;99.90;;;-141.84;98.50;19785.38;4984265;28;20321;-60
2023/09/27 02:47:48;;;;;;;25.85;21.35;;;13.80;99.90;;;-141.84;98.71;19811.81;4984484;28;20234;-60
2023/09/27 02:50:16;;;;;;;25.33;20.92;;;14.00;99.90;;;-141.84;98.70;19795.53;4998101;28;20230;-60
2023/09/27 02:52:45;;;;;;;24.38;20.05;;;13.90;99.90;;;-141.84;98.67;19824.00;4997621;28;20235;-61
2023/09/27 02:55:13;;;;;;;22.98;19.70;;;13.90;99.90;;;-141.84;98.77;19797.59;4984193;28;20602;-61
2023/09/27 02:57:48;;;;;;;24.60;19.90;;;13.90;99.90;;;-141.84;98.81;19787.41;4977111;28;20722;-60
2023/09/27 03:00:18;;;;;;;23.20;20.80;;;13.90;99.90;;;-141.84;98.93;19785.38;4977460;28;20230;-60
2023/09/27 03:02:48;;;;;;;23.65;19.50;;;13.80;99.90;;;-141.84;99.12;19769.13;4965053;28;20211;-61
2023/09/27 03:05:17;;;;;;;22.58;20.17;;;13.80;99.90;;;-141.84;98.95;19799.63;4967675;28;20318;-61
2023/09/27 03:07:46;;;;;;;21.40;18.98;;;13.80;99.90;;;-141.84;98.87;19785.38;4979152;28;20227;-60
2023/09/27 03:10:15;;;;;;;21.38;18.63;;;13.90;99.90;;;-141.84;98.92;19724.41;4983960;28;20645;-60
2023/09/27 03:12:47;;;;;;;22.77;18.65;;;13.80;99.90;;;-141.84;98.85;19748.81;4984032;28;20231;-60
2023/09/27 03:15:16;;;;;;;21.70;19.40;;;13.80;99.90;;;-141.84;98.97;19748.81;4984028;28;20215;-62
2023/09/27 03:17:45;;;;;;;21.88;18.67;;;13.80;99.90;;;-141.84;99.01;19748.81;4977368;28;20578;-61
2023/09/27 03:20:16;;;;;;;23.92;18.98;;;13.80;99.90;;;-141.84;99.05;19752.88;4997614;28;20234;-62
2023/09/27 03:22:46;;;;;;;23.73;19.85;;;13.70;99.90;;;-141.84;99.15;19734.56;4992047;28;20222;-60
2023/09/27 03:25:16;;;;;;;24.85;19.00;;;13.70;99.90;;;-141.84;99.16;19744.75;4983634;28;20727;-60
2023/09/27 03:27:45;;;;;;;22.67;19.13;;;13.70;99.90;;;-141.84;99.18;19712.22;4977858;28;20231;-60
2023/09/27 03:30:14;;;;;;;22.08;19.63;;;13.70;99.90;;;-141.84;99.21;19732.53;4984173;28;20496;-59
2023/09/27 03:32:42;;;;;;;23.30;20.27;;;13.80;99.90;;;-141.84;99.22;19754.91;4983963;28;20298;-60
2023/09/27 03:35:11;;;;;;;23.05;18.60;;;13.80;99.90;;;-141.84;98.88;19761.00;4983508;28;20227;-60
2023/09/27 03:37:40;;;;;;;22.17;18.77;;;13.80;99.90;;;-141.84;98.75;19789.44;4975922;28;20713;-60
2023/09/27 03:40:13;;;;;;;20.50;18.27;;;13.80;99.90;;;-141.84;98.76;19758.97;4983108;28;20759;-60
2023/09/27 03:42:45;;;;;;;23.08;19.27;;;13.80;99.90;;;-141.84;98.80;19789.44;4983561;28;20311;-60
2023/09/27 03:45:15;;;;;;;21.50;18.75;;;13.80;99.90;;;-141.84;98.64;19771.16;4981460;28;20594;-62
2023/09/27 03:47:45;;;;;;;22.15;19.38;;;13.70;99.90;;;-141.84;98.82;19748.81;4971907;28;20286;-62
2023/09/27 03:50:14;;;;;;;20.88;18.65;;;13.80;99.90;;;-141.84;98.77;19805.72;4997380;28;20652;-61
2023/09/27 03:52:44;;;;;;;22.50;18.70;;;13.70;99.90;;;-141.84;98.75;19765.06;4987483;28;20267;-60
2023/09/27 03:55:13;;;;;;;25.02;19.55;;;13.70;99.90;;;-141.84;98.94;19767.09;4983078;28;20632;-59
2023/09/27 03:57:42;;;;;;;23.95;19.58;;;13.70;99.90;;;-141.84;99.07;19775.22;4975946;28;20800;-61
2023/09/27 04:00:14;;;;;;;24.70;19.42;;;13.70;99.90;;;-141.84;99.04;19756.94;4977773;28;20598;-61
2023/09/27 04:02:43;;;;;;;23.15;19.27;;;13.70;99.90;;;-141.84;99.14;19736.59;4964270;28;20601;-59
2023/09/27 04:05:12;;;;;;;25.05;19.48;;;13.70;99.90;;;-141.84;99.19;19740.69;4963976;28;20282;-60
2023/09/27 04:07:40;;;;;;;22.90;19.13;;;13.70;99.90;;;-141.84;99.26;19714.25;4955703;28;20231;-60
2023/09/27 04:10:11;;;;;;;25.48;19.35;;;13.70;99.90;;;-141.84;99.38;19726.44;4964119;28;20232;-61
2023/09/27 04:12:40;;;;;;;24.52;20.25;;;13.70;99.90;;;-141.84;99.49;19663.44;4978350;28;20277;-60
2023/09/27 04:15:10;;;;;;;23.90;20.27;;;13.70;99.90;;;-141.84;99.64;19712.22;4983472;28;20207;-60
2023/09/27 04:17:38;;;;;;;26.48;20.70;;;13.70;99.90;;;-141.84;99.68;19706.13;4978689;28;20691;-60
2023/09/27 04:20:14;;;;;;;23.95;19.73;;;13.70;99.90;;;-141.84;99.69;19714.25;5002742;28;20304;-61
2023/09/27 04:22:44;;;;;;;27.95;18.80;;;13.80;99.90;;;-141.84;99.64;19728.47;5008490;28;20753;-60
2023/09/27 04:25:15;;;;;;;26.95;19.58;;;13.80;99.90;;;-141.84;99.50;19754.91;5008951;28;20681;-60
2023/09/27 04:27:46;;;;;;;24.85;19.52;;;13.80;99.90;;;-141.84;99.39;19738.66;5001449;28;20226;-60
2023/09/27 04:30:15;;;;;;;21.45;18.77;;;13.80;99.90;;;-141.84;99.46;19728.47;4997017;28;20333;-60
2023/09/27 04:32:45;;;;;;;23.23;19.85;;;13.80;99.90;;;-141.84;99.47;19736.59;4989901;28;20339;-61
2023/09/27 04:35:14;;;;;;;24.65;19.67;;;13.80;99.90;;;-141.84;99.30;19734.56;4989382;28;20231;-61
2023/09/27 04:37:43;;;;;;;22.23;18.77;;;13.90;99.90;;;-141.84;99.16;19744.75;4981449;28;20346;-60
2023/09/27 04:40:14;;;;;;;25.25;18.65;;;13.90;99.90;;;-141.84;98.91;19765.06;4989121;28;20722;-61
2023/09/27 04:42:43;;;;;;;23.02;18.88;;;13.90;99.90;;;-141.84;98.85;19781.31;4989155;28;20242;-60
2023/09/27 04:45:13;;;;;;;22.55;18.65;;;13.80;99.90;;;-141.84;98.80;19791.47;4988976;28;20234;-60
2023/09/27 04:47:44;;;;;;;21.83;18.38;;;13.80;99.90;;;-141.84;98.94;19758.97;4981768;28;20251;-61
2023/09/27 04:50:13;;;;;;;23.10;18.38;;;13.80;99.90;;;-141.84;98.66;19742.72;4988236;28;20801;-60
2023/09/27 04:52:42;;;;;;;22.45;19.33;;;13.70;99.90;;;-141.84;98.82;19765.06;4988698;28;20231;-59
2023/09/27 04:55:12;;;;;;;24.25;19.20;;;13.80;99.90;;;-141.84;98.30;19836.19;4989199;28;20310;-60
2023/09/27 04:57:42;;;;;;;23.63;18.83;;;13.80;99.90;;;-141.84;98.12;19765.06;4974698;28;20721;-63
2023/09/27 05:00:14;;;;;;;23.17;18.83;;;13.80;99.90;;;-141.84;98.21;19756.94;4975358;28;20232;-60
2023/09/27 05:02:42;;;;;;;24.52;18.73;;;13.80;99.90;;;-141.84;98.15;19761.00;4988741;28;20207;-62
2023/09/27 05:05:11;;;;;;;23.02;19.52;;;13.80;99.90;;;-141.84;97.83;19805.72;4989029;28;20231;-60
2023/09/27 05:07:40;;;;;;;21.90;18.50;;;13.80;99.90;;;-141.84;97.63;19763.03;4981322;28;20887;-61
2023/09/27 05:10:09;;;;;;;24.60;19.00;;;13.80;99.90;;;-141.84;97.81;19801.66;4989272;28;20237;-61
2023/09/27 05:12:39;;;;;;;24.85;19.77;;;13.80;99.90;;;-141.84;97.93;19787.41;4988936;28;20345;-60
2023/09/27 05:15:10;;;;;;;25.02;19.00;;;13.80;99.90;;;-141.84;98.14;19750.84;4989279;28;20219;-61
2023/09/27 05:17:38;;;;;;;22.33;18.15;;;13.70;99.90;;;-141.84;98.32;19726.44;4982000;28;20301;-61
2023/09/27 05:20:10;;;;;;;26.67;18.67;;;13.70;99.90;;;-141.84;98.57;19797.59;4989399;28;20234;-61
2023/09/27 05:22:40;;;;;;;25.33;18.63;;;13.70;99.90;;;-141.84;98.78;19740.69;4989061;28;20301;-60
2023/09/27 05:25:10;;;;;;;25.75;19.80;;;13.70;99.90;;;-141.84;98.84;19740.69;4989129;28;20274;-61
2023/09/27 05:27:39;;;;;;;23.45;19.02;;;13.70;99.90;;;-141.84;98.80;19742.72;4980942;28;20227;-60
2023/09/27 05:30:11;;;;;;;25.35;19.08;;;13.70;99.90;;;-141.84;98.80;19726.44;4985794;28;20207;-60
2023/09/27 05:32:42;;;;;;;27.67;19.05;;;13.70;99.90;;;-141.84;98.84;19765.06;4987480;28;20763;-61
2023/09/27 05:35:10;;;;;;;26.92;20.88;;;13.80;99.90;;;-141.84;99.00;19738.66;4987524;28;20655;-60
2023/09/27 05:37:39;;;;;;;25.35;20.15;;;13.80;99.90;;;-141.84;98.96;19708.16;4980451;28;20497;-61
2023/09/27 05:40:10;;;;;;;22.33;18.58;;;13.80;99.90;;;-141.84;99.03;19689.88;4987643;28;20265;-61
2023/09/27 05:42:39;;;;;;;23.88;20.33;;;13.80;99.90;;;-141.84;99.12;19700.03;4987048;28;20235;-60
2023/09/27 05:45:11;;;;;;;24.80;18.88;;;13.80;99.90;;;-141.84;99.01;19734.56;4985584;28;20226;-59
2023/09/27 05:47:40;;;;;;;24.17;18.92;;;13.80;99.90;;;-141.84;99.20;19720.34;4973204;28;20219;-60
2023/09/27 05:50:11;;;;;;;22.27;18.88;;;13.90;99.90;;;-141.84;99.14;19761.00;4987199;28;20242;-60
2023/09/27 05:52:43;;;;;;;25.23;20.48;;;13.90;99.90;;;-141.84;98.85;19740.69;4986049;28;20231;-61
2023/09/27 05:55:11;;;;;;;29.33;21.58;;;13.90;99.90;;;-141.84;98.66;19805.72;4980294;28;20363;-60
2023/09/27 05:57:40;;;;;;;28.95;21.85;;;13.90;99.90;;;-141.84;98.07;19775.22;4979201;28;20325;-60
2023/09/27 06:00:21;;;;;;;26.95;21.38;;;13.90;99.90;;;-141.84;97.70;19763.03;4985240;28;20250;-59
2023/09/27 06:02:50;;;;;;;32.88;22.92;;;14.00;99.90;;;-141.84;97.62;19858.56;4987063;28;20258;-61
2023/09/27 06:05:18;;;;;;;25.48;21.38;;;14.00;99.90;;;-141.84;97.28;19834.16;4986343;28;20710;-60
2023/09/27 06:07:47;;;;;;;27.10;21.38;;;14.00;99.90;;;-141.84;97.44;19779.28;4985113;28;20318;-61
2023/09/27 06:10:16;;;;;;;28.20;22.23;;;14.00;99.90;;;-141.84;97.28;19809.78;4986721;28;20235;-60
2023/09/27 06:12:44;;;;;;;27.83;23.60;;;14.00;99.90;;;-141.84;95.92;19874.81;4985934;28;20310;-60
2023/09/27 06:15:14;;;;;;;26.38;22.02;;;14.20;99.90;;;-141.84;95.08;19923.59;4986050;28;20277;-60
2023/09/27 06:17:43;;;;;;;28.00;21.95;;;14.20;99.90;;;-141.84;94.68;19917.50;4979697;28;20299;-60
2023/09/27 06:20:19;;;;;;;25.88;20.73;;;14.30;99.90;;;-141.84;94.81;19884.97;4985799;28;20231;-61
2023/09/27 06:22:49;;;;;;;26.58;20.23;;;14.30;99.90;;;-141.84;93.98;19943.91;4985625;28;20242;-61
2023/09/27 06:25:18;;;;;;;25.48;20.55;;;14.40;99.90;;;-141.84;93.21;19956.09;4985594;28;20231;-60
2023/09/27 06:27:47;;;;;;;26.60;20.65;;;14.50;99.90;;;-141.84;92.88;19972.38;4981796;28;20263;-60
2023/09/27 06:30:17;;;;;;;21.73;18.67;;;14.50;99.90;;;-141.84;93.37;19952.03;4985685;28;20306;-60
2023/09/27 06:32:46;;;;;;;29.13;20.65;;;14.50;99.90;;;-141.84;93.07;20000.81;4986135;28;20211;-61
2023/09/27 06:35:14;;;;;;;22.77;18.38;;;14.70;99.90;;;-141.84;92.12;20013.00;4985944;28;20234;-60
2023/09/27 06:37:48;;;;;;;23.40;18.70;;;14.70;99.90;;;-141.84;92.82;19992.69;4980069;28;20250;-60
2023/09/27 06:40:19;;;;;;;21.48;18.90;;;14.80;99.90;;;-141.84;92.36;19978.47;4986427;28;20313;-60
2023/09/27 06:42:48;;;;;;;20.23;17.73;;;14.90;99.90;;;-141.84;91.26;20008.94;4986731;28;20768;-60
2023/09/27 06:45:18;;;;;;;22.30;17.88;;;15.00;99.90;;;-141.84;90.25;20082.13;4983590;28;20223;-60
2023/09/27 06:47:47;;;;;;;20.23;17.80;;;15.10;99.90;;;-141.84;88.93;20082.13;4977414;28;20255;-60
2023/09/27 06:50:17;;;;;;;20.08;15.60;;;15.20;99.90;;;-141.84;88.38;20106.50;4986210;28;20243;-61
2023/09/27 06:52:47;;;;;;;17.52;15.68;;;15.30;99.90;;;-141.84;87.88;20143.09;4982686;28;20710;-60
2023/09/27 06:55:16;;;;;;;23.65;17.67;;;15.40;99.90;;;-141.84;87.11;20145.13;4983627;28;20739;-61
2023/09/27 06:57:49;;;;;;;18.50;16.50;;;15.50;99.90;;;-141.84;86.81;20202.03;4977754;28;20524;-60
2023/09/27 07:00:23;;;;;;;19.17;16.70;;;15.60;99.90;;;-141.84;85.59;20177.66;4983308;28;20695;-60
2023/09/27 07:02:53;;;;;;;16.77;14.77;;;15.60;99.90;;;-141.84;85.52;20185.78;4984313;28;20589;-60
2023/09/27 07:05:22;;;;;;;16.25;14.65;;;15.70;99.90;;;-141.84;85.80;20191.88;4977386;28;20306;-59
2023/09/27 07:07:51;;;;;;;20.50;16.63;;;15.70;99.90;;;-141.84;85.76;20222.38;4980957;28;20326;-61
2023/09/27 07:10:20;;;;;;;17.23;14.68;;;15.80;99.90;;;-141.84;85.42;20232.53;4984122;28;20227;-61
2023/09/27 07:12:48;;;;;;;19.75;17.73;;;15.90;99.90;;;-141.84;85.08;20250.81;4983766;28;20310;-61
2023/09/27 07:15:18;;;;;;;21.17;18.40;;;16.00;99.90;;;-141.84;84.05;20220.34;4983668;28;20246;-60
2023/09/27 07:17:47;;;;;;;23.85;18.63;;;16.10;99.90;;;-141.84;83.21;20289.44;4979955;28;20209;-60
2023/09/27 07:20:23;;;;;;;20.48;17.55;;;16.20;99.90;;;-141.84;83.26;20287.41;4969703;28;20228;-60
2023/09/27 07:22:53;;;;;;;18.70;16.70;;;16.30;99.90;;;-141.84;83.25;20342.28;4964301;28;20262;-61
2023/09/27 07:25:23;;;;;;;23.25;18.60;;;16.40;99.90;;;-141.84;82.52;20332.13;4966414;28;20257;-62
2023/09/27 07:27:52;;;;;;;22.40;18.38;;;16.50;99.90;;;-141.84;82.44;20350.41;4983585;28;20670;-61
2023/09/27 07:30:23;;;;;;;23.58;18.08;;;16.60;99.90;;;-141.84;82.21;20391.06;4983281;28;20207;-60
2023/09/27 07:32:53;;;;;;;20.00;16.63;;;16.70;99.90;;;-141.84;82.20;20411.41;4983787;28;20203;-60
2023/09/27 07:35:23;;;;;;;18.05;16.08;;;16.70;99.90;;;-141.84;82.23;20417.50;4978635;28;20710;-60
2023/09/27 07:37:52;;;;;;;24.35;18.83;;;16.90;99.90;;;-141.84;81.04;20468.31;4983533;28;20322;-59
2023/09/27 07:40:20;;;;;;;20.02;16.88;;;17.00;99.90;;;-141.84;80.61;20484.56;4983402;28;20736;-61
2023/09/27 07:42:48;;;;;;;19.52;17.05;;;17.20;99.90;;;-141.84;80.35;20504.91;4983645;28;20314;-61
2023/09/27 07:45:21;;;;;;;18.83;16.80;;;17.30;99.90;;;-141.84;80.05;20490.66;4983444;28;20737;-61
2023/09/27 07:47:52;;;;;;;22.67;18.85;;;17.50;99.90;;;-141.84;78.89;20535.41;4982917;28;20223;-59
2023/09/27 07:50:26;;;;;;;20.58;16.70;;;17.60;99.90;;;-141.84;77.54;20626.88;4982794;28;20234;-60
2023/09/27 07:52:55;;;;;;;20.33;17.52;;;17.70;99.90;;;-141.84;77.56;20622.81;4982762;28;20385;-60
2023/09/27 07:55:23;;;;;;;20.85;16.50;;;17.80;99.90;;;-141.84;78.01;20612.63;4976003;28;20606;-60
2023/09/27 07:57:52;;;;;;;19.65;16.15;;;17.80;99.90;;;-141.84;77.44;20637.03;4982995;28;20654;-59
2023/09/27 08:00:29;;;;;;;22.75;18.55;;;17.90;99.90;;;-141.84;76.94;20669.56;4982505;28;20485;-60
2023/09/27 08:02:59;;;;;;;18.60;15.75;;;17.90;99.90;;;-141.84;76.83;20665.50;4983399;28;20301;-60
2023/09/27 08:05:28;;;;;;;18.75;16.10;;;18.00;99.90;;;-141.84;76.95;20667.53;4975217;28;20285;-61
2023/09/27 08:07:56;;;;;;;19.42;15.23;;;18.10;99.90;;;-141.84;77.28;20716.31;4983408;28;20369;-60
2023/09/27 08:10:24;;;;;;;16.42;14.70;;;18.10;99.90;;;-141.84;77.06;20720.38;4983223;28;20293;-60
2023/09/27 08:12:53;;;;;;;15.88;14.27;;;18.20;99.90;;;-141.84;76.69;20712.25;4982785;28;20269;-60
2023/09/27 08:15:21;;;;;;;16.73;14.90;;;18.30;99.90;;;-141.84;76.56;20754.94;4963580;28;20315;-59
2023/09/27 08:17:49;;;;;;;19.92;15.48;;;18.10;99.90;;;-141.84;75.53;20795.59;4967517;28;20210;-60
2023/09/27 08:20:19;;;;;;;20.05;14.98;;;18.50;99.90;;;-141.84;75.05;20773.22;4982758;28;20238;-61
2023/09/27 08:22:48;;;;;;;18.63;14.45;;;18.60;99.90;;;-141.84;75.29;20822.03;4982632;28;20277;-62
2023/09/27 08:25:16;;;;;;;16.92;14.65;;;18.70;99.90;;;-141.84;74.29;20848.44;4964656;28;20790;-60
2023/09/27 08:27:50;;;;;;;15.40;12.98;;;18.80;99.90;;;-141.84;74.46;20933.81;4976530;28;20243;-60
2023/09/27 08:30:19;;;;;;;14.50;12.43;;;18.90;99.90;;;-141.84;74.29;20901.31;4982834;28;20203;-61
2023/09/27 08:32:48;;;;;;;16.73;13.90;;;19.00;99.90;;;-141.84;73.45;20939.94;4983111;28;20207;-61
2023/09/27 08:35:17;;;;;;;13.90;12.60;;;19.20;99.90;;;-141.84;73.36;20937.91;4982238;28;20270;-61
2023/09/27 08:37:47;;;;;;;14.55;12.98;;;19.20;99.90;;;-141.84;73.06;20935.88;4976098;28;20239;-62
2023/09/27 08:40:16;;;;;;;12.52;10.75;;;19.40;99.90;;;-141.84;72.70;21011.09;4983279;28;20243;-62
2023/09/27 08:42:48;;;;;;;16.83;13.32;;;19.50;99.90;;;-141.84;71.97;21033.44;4982640;28;20229;-62
2023/09/27 08:45:22;;;;;;;15.68;12.77;;;19.50;99.90;;;-141.84;72.01;21017.19;4982076;28;20628;-65
2023/09/27 08:47:51;;;;;;;15.18;12.73;;;19.60;99.90;;;-141.84;71.55;21057.84;4982689;28;20231;-62
2023/09/27 08:50:21;;;;;;;14.75;13.18;;;19.70;99.90;;;-141.84;71.18;21102.56;4982360;28;20272;-64
2023/09/27 08:52:51;;;;;;;15.85;14.18;;;19.70;99.90;;;-141.84;70.09;21124.94;4982030;28;20220;-65
2023/09/27 08:55:20;;;;;;;18.17;14.13;;;19.80;99.90;;;-141.84;69.90;21163.56;4981623;28;20307;-63
2023/09/27 08:57:52;;;;;;;13.88;12.50;;;19.90;99.90;;;-141.84;70.13;21143.22;4979267;28;20239;-61
2023/09/27 09:00:26;;;;;;;15.77;14.15;;;19.90;99.90;;;-141.84;70.31;21165.59;4982223;28;20227;-60
2023/09/27 09:03:00;;;;;;;15.18;13.52;;;20.00;99.90;;;-141.84;70.37;21167.63;4982986;28;20214;-60
2023/09/27 09:05:30;;;;;;;15.60;13.68;;;20.00;99.90;;;-141.84;69.77;21200.16;4978599;28;20718;-60
2023/09/27 09:08:04;;;;;;;16.52;14.10;;;20.10;99.90;;;-141.84;69.93;21187.97;4985981;28;20274;-64
2023/09/27 09:10:33;;;;;;;16.70;13.15;;;20.20;99.90;;;-141.84;69.95;21200.16;4986249;28;20618;-59
2023/09/27 09:13:03;;;;;;;14.63;12.48;;;20.20;99.90;;;-141.84;70.01;21248.94;4986058;28;20219;-61
2023/09/27 09:15:36;;;;;;;18.15;13.90;;;20.30;99.90;;;-141.84;69.16;21261.16;4978263;28;20227;-61
2023/09/27 09:18:08;;;;;;;13.23;11.85;;;20.30;99.90;;;-141.84;69.42;21287.56;4986684;28;20219;-64
2023/09/27 09:20:49;;;;;;;15.95;12.80;;;20.40;99.90;;;-141.84;68.68;21314.00;4985791;28;20578;-64
2023/09/27 09:23:38;;;;;;;12.43;11.20;;;20.40;99.90;;;-141.84;69.41;21289.59;4985868;28;20326;-61
2023/09/27 09:26:09;;;;;;;14.63;11.98;;;20.50;99.90;;;-141.84;69.40;21275.38;4986232;28;20258;-60
2023/09/27 09:28:55;;;;;;;14.88;12.35;;;20.50;99.90;;;-141.84;69.36;21328.25;4986130;28;20242;-61
2023/09/27 09:31:26;;;;;;;13.90;12.50;;;20.60;99.90;;;-141.84;68.65;21322.13;4977631;28;20386;-61
2023/09/27 09:34:05;;;;;;;16.90;13.40;;;20.60;99.90;;;-141.84;68.51;21340.44;4984920;28;20366;-60
2023/09/27 09:36:34;;;;;;;13.35;12.05;;;20.70;99.90;;;-141.84;69.12;21322.13;4985647;28;20253;-61
2023/09/27 09:39:13;;;;;;;15.18;13.07;;;20.70;99.90;;;-141.84;67.68;21407.53;4985978;28;20210;-64
2023/09/27 09:41:46;;;;;;;12.88;11.57;;;20.80;99.90;;;-141.84;67.79;21450.22;4978255;28;20346;-62
2023/09/27 09:44:20;;;;;;;17.05;13.60;;;20.90;99.90;;;-141.84;67.69;21415.66;4985400;28;20433;-61
2023/09/27 09:46:49;;;;;;;13.07;11.65;;;21.00;99.90;;;-141.84;67.35;21433.97;4985293;28;20222;-62
2023/09/27 09:49:18;;;;;;;13.77;11.90;;;21.00;99.90;;;-141.84;67.21;21452.25;4984689;28;20242;-61
2023/09/27 09:51:49;;;;;;;16.58;12.80;;;21.10;99.90;;;-141.84;66.63;21492.94;4974737;28;20242;-60
2023/09/27 09:54:36;;;;;;;13.90;11.82;;;21.20;99.90;;;-141.84;66.66;21521.41;4984917;28;20587;-64
2023/09/27 09:57:06;;;;;;;13.68;11.85;;;21.30;99.90;;;-141.84;67.02;21501.06;4985625;28;20207;-63
2023/09/27 10:00:03;;;;;;;15.02;12.15;;;21.30;99.90;;;-141.84;66.87;21519.34;4971402;28;20727;-62
2023/09/27 10:02:41;;;;;;;14.65;11.73;;;21.40;99.90;;;-141.84;66.60;21553.94;4980799;28;20279;-61
2023/09/27 10:05:11;;;;;;;12.48;11.00;;;21.40;99.90;;;-141.84;65.54;21639.31;4968912;28;20293;-62